Time;durP1;ratioP1;P1;durP2;ratioP2;P2;SDS_P1;SDS_P2;PMS_P1;PMS_P2;Temp;Humidity;BMP_temperature;BMP_pressure;BME280_temperature;BME280_humidity;BME280_pressure;Samples;Min_cycle;Max_cycle;Signal;HPM_P1;HPM_P2
2022/01/19 00:00:49;;;;;;;65.32;28.92;;;4.80;99.90;;;;;;5089628;28;20442;-81
2022/01/19 00:03:16;;;;;;;70.35;29.67;;;4.80;99.90;;;;;;5090871;28;20438;-81
2022/01/19 00:05:42;;;;;;;75.25;31.23;;;4.80;99.90;;;;;;5090539;28;20047;-81
2022/01/19 00:08:10;;;;;;;72.47;31.02;;;4.80;99.90;;;;;;5090349;28;20046;-81
2022/01/19 00:10:36;;;;;;;81.82;34.88;;;4.80;99.90;;;;;;5089219;28;20036;-81
2022/01/19 00:13:01;;;;;;;73.93;32.88;;;4.80;99.90;;;;;;5090748;28;20449;-81
2022/01/19 00:15:28;;;;;;;71.65;30.85;;;4.80;99.90;;;;;;5090542;28;20042;-81
2022/01/19 00:17:57;;;;;;;73.00;33.13;;;4.80;99.90;;;;;;5090797;28;20390;-81
2022/01/19 00:20:24;;;;;;;67.45;28.63;;;4.80;99.90;;;;;;5090323;28;20044;-81
2022/01/19 00:22:50;;;;;;;71.72;30.17;;;4.80;99.90;;;;;;5089952;28;20571;-81
2022/01/19 00:25:17;;;;;;;64.75;29.40;;;4.80;99.90;;;;;;5090593;28;20036;-81
2022/01/19 00:27:43;;;;;;;75.65;32.45;;;4.70;99.90;;;;;;5090575;28;20036;-81
2022/01/19 00:30:09;;;;;;;77.78;32.75;;;4.70;99.90;;;;;;5090819;28;20468;-81
2022/01/19 00:32:34;;;;;;;75.35;31.50;;;4.70;99.90;;;;;;5090038;28;20036;-81
2022/01/19 00:35:02;;;;;;;75.10;34.28;;;4.70;99.90;;;;;;5091812;28;20036;-80
2022/01/19 00:37:27;;;;;;;71.55;32.92;;;4.70;99.90;;;;;;5089959;28;20036;-81
2022/01/19 00:39:53;;;;;;;75.22;33.17;;;4.70;99.90;;;;;;5090687;28;20039;-81
2022/01/19 00:42:19;;;;;;;77.38;33.78;;;4.70;99.90;;;;;;5089674;28;20097;-81
2022/01/19 00:44:46;;;;;;;70.78;36.25;;;4.70;99.90;;;;;;5090412;28;20044;-81
2022/01/19 00:47:12;;;;;;;86.50;37.03;;;4.70;99.90;;;;;;5090126;28;20042;-81
2022/01/19 00:49:38;;;;;;;64.70;29.02;;;4.70;99.90;;;;;;5094945;28;20099;-81
2022/01/19 00:52:04;;;;;;;76.20;32.25;;;4.70;99.90;;;;;;5093533;28;20074;-80
2022/01/19 00:54:29;;;;;;;69.00;31.10;;;4.70;99.90;;;;;;5093923;28;20397;-81
2022/01/19 00:56:55;;;;;;;72.95;28.90;;;4.70;99.90;;;;;;5093588;28;20376;-81
2022/01/19 00:59:20;;;;;;;68.38;31.20;;;4.60;99.90;;;;;;5093530;28;20039;-81
2022/01/19 01:01:46;;;;;;;57.92;29.30;;;4.60;99.90;;;;;;5093259;28;20402;-80
2022/01/19 01:04:11;;;;;;;64.22;27.92;;;4.60;99.90;;;;;;5094040;28;20117;-81
2022/01/19 01:06:37;;;;;;;65.57;25.95;;;4.70;99.90;;;;;;5092994;28;20071;-81
2022/01/19 01:09:03;;;;;;;59.15;25.75;;;4.70;99.90;;;;;;5092987;28;20443;-80
2022/01/19 01:11:34;;;;;;;61.10;29.75;;;4.70;99.90;;;;;;5077099;28;20086;-81
2022/01/19 01:16:34;;;;;;;51.88;23.70;;;4.80;99.90;;;;;;5093675;28;20039;-81
2022/01/19 01:19:00;;;;;;;57.70;23.15;;;4.80;99.90;;;;;;5093831;28;20043;-80
2022/01/19 01:21:26;;;;;;;57.20;25.38;;;4.80;99.90;;;;;;5093272;28;20039;-80
2022/01/19 01:23:52;;;;;;;45.47;20.58;;;4.80;99.90;;;;;;5093107;28;20431;-81
2022/01/19 01:26:17;;;;;;;39.95;18.33;;;4.80;99.90;;;;;;5090795;28;20028;-81
2022/01/19 01:28:43;;;;;;;50.58;21.42;;;4.80;99.90;;;;;;5093407;28;20040;-81
2022/01/19 01:31:09;;;;;;;44.53;20.52;;;4.80;99.90;;;;;;5093778;28;20036;-81
2022/01/19 01:33:36;;;;;;;54.60;20.25;;;4.80;99.90;;;;;;5089214;28;20043;-80
2022/01/19 01:36:02;;;;;;;50.35;21.85;;;4.80;99.90;;;;;;5092828;28;20048;-80
2022/01/19 01:38:28;;;;;;;54.60;22.80;;;4.80;99.90;;;;;;5076067;28;20046;-81
2022/01/19 01:40:53;;;;;;;45.05;21.67;;;4.80;99.90;;;;;;5093674;28;20076;-81
2022/01/19 01:43:19;;;;;;;49.63;21.85;;;4.80;99.90;;;;;;5092885;28;20375;-80
2022/01/19 01:45:48;;;;;;;59.05;23.55;;;4.80;99.90;;;;;;5092881;28;20078;-81
2022/01/19 01:48:18;;;;;;;56.95;24.73;;;4.80;99.90;;;;;;5092941;28;20091;-80
2022/01/19 01:53:31;;;;;;;47.33;22.65;;;4.60;99.90;;;;;;5092677;28;20049;-80
2022/01/19 01:56:16;;;;;;;46.47;21.88;;;4.40;99.90;;;;;;5092529;28;20042;-81
2022/01/19 01:58:45;;;;;;;53.42;24.88;;;4.30;99.90;;;;;;5093412;28;20044;-80
2022/01/19 02:01:11;;;;;;;49.78;24.13;;;4.10;99.90;;;;;;5094250;28;20076;-81
2022/01/19 02:03:39;;;;;;;53.05;25.02;;;3.90;99.90;;;;;;5094403;28;20127;-81
2022/01/19 02:08:49;;;;;;;59.70;23.27;;;3.70;99.90;;;;;;5094447;28;20048;-81
2022/01/19 02:21:51;;;;;;;63.35;27.13;;;3.60;99.90;;;;;;5096743;28;20048;-81
2022/01/19 02:24:20;;;;;;;66.13;27.45;;;3.70;99.90;;;;;;5097180;28;20501;-81
2022/01/19 02:36:31;;;;;;;61.25;25.75;;;3.80;99.90;;;;;;5097581;28;20062;-81
2022/01/19 02:40:11;;;;;;;68.90;33.30;;;4.00;99.90;;;;;;5098149;28;20071;-81
2022/01/19 02:42:51;;;;;;;67.32;27.55;;;4.00;99.90;;;;;;5096202;28;20089;-81
2022/01/19 02:50:30;;;;;;;73.10;32.10;;;4.10;99.90;;;;;;5093850;28;20491;-81
2022/01/19 02:52:55;;;;;;;63.75;29.42;;;4.10;99.90;;;;;;5097363;28;20036;-81
2022/01/19 02:55:22;;;;;;;76.15;31.77;;;4.10;99.90;;;;;;5095438;28;20085;-81
2022/01/19 02:57:48;;;;;;;88.78;35.38;;;4.00;99.90;;;;;;5096800;28;20502;-81
2022/01/19 03:08:44;;;;;;;81.97;32.67;;;4.10;99.90;;;;;;5097044;28;20040;-82
2022/01/19 03:11:11;;;;;;;84.13;34.83;;;4.20;99.90;;;;;;5095444;28;20516;-81
2022/01/19 03:13:36;;;;;;;88.68;39.60;;;4.10;99.90;;;;;;5096267;28;20028;-81
2022/01/19 03:16:02;;;;;;;88.95;33.80;;;4.00;99.90;;;;;;5095149;28;20436;-81
2022/01/19 03:18:28;;;;;;;84.28;35.15;;;4.10;99.90;;;;;;5088288;28;20042;-80
2022/01/19 03:20:53;;;;;;;72.18;29.95;;;4.10;99.90;;;;;;5087657;28;20036;-81
2022/01/19 03:23:20;;;;;;;68.22;30.85;;;4.10;99.90;;;;;;5105629;28;20046;-81
2022/01/19 03:25:51;;;;;;;80.85;34.30;;;4.10;99.90;;;;;;5102210;28;20074;-81
2022/01/19 03:28:17;;;;;;;74.82;32.78;;;4.10;99.90;;;;;;5106703;28;20104;-81
2022/01/19 03:30:44;;;;;;;85.65;37.50;;;4.00;99.90;;;;;;5105317;28;20032;-81
2022/01/19 03:33:10;;;;;;;82.63;34.97;;;4.00;99.90;;;;;;5105615;28;20040;-81
2022/01/19 03:35:40;;;;;;;82.70;38.30;;;3.90;99.90;;;;;;5098709;28;20044;-80
2022/01/19 03:38:06;;;;;;;83.55;38.03;;;3.90;99.90;;;;;;5096392;28;20137;-81
2022/01/19 03:40:32;;;;;;;99.90;40.78;;;3.80;99.90;;;;;;5079969;28;20079;-81
2022/01/19 03:42:58;;;;;;;98.97;42.75;;;3.80;99.90;;;;;;5096906;28;20040;-81
2022/01/19 03:45:24;;;;;;;128.43;49.70;;;3.80;99.90;;;;;;5095507;28;20055;-81
2022/01/19 03:48:06;;;;;;;156.45;52.55;;;3.80;99.90;;;;;;5096107;28;20032;-81
2022/01/19 03:50:33;;;;;;;142.38;56.90;;;3.80;99.90;;;;;;5084301;28;20044;-81
2022/01/19 03:52:59;;;;;;;158.95;56.67;;;3.80;99.90;;;;;;5104720;28;20047;-81
2022/01/19 03:55:24;;;;;;;182.45;61.13;;;3.90;99.90;;;;;;5104236;28;20040;-81
2022/01/19 03:57:50;;;;;;;99.80;45.50;;;3.80;99.90;;;;;;5098446;28;20040;-81
2022/01/19 04:00:16;;;;;;;127.45;50.58;;;3.80;99.90;;;;;;5096644;28;20111;-81
2022/01/19 04:02:41;;;;;;;120.53;50.15;;;3.80;99.90;;;;;;5096075;28;20051;-81
2022/01/19 04:05:17;;;;;;;109.15;47.00;;;3.80;99.90;;;;;;5096301;28;20076;-81
2022/01/19 04:07:42;;;;;;;93.22;41.38;;;3.80;99.90;;;;;;5096191;28;20398;-81
2022/01/19 04:10:08;;;;;;;100.70;43.30;;;3.80;99.90;;;;;;5096480;28;20035;-81
2022/01/19 04:15:09;;;;;;;95.80;42.83;;;3.90;99.90;;;;;;5096782;28;20047;-81
2022/01/19 04:17:37;;;;;;;93.55;40.53;;;3.90;99.90;;;;;;5095811;28;20055;-81
2022/01/19 04:20:03;;;;;;;87.95;40.95;;;3.90;99.90;;;;;;5095006;28;20043;-83
2022/01/19 04:22:28;;;;;;;88.93;38.92;;;3.90;99.90;;;;;;5099538;28;20055;-83
2022/01/19 04:24:54;;;;;;;83.68;37.65;;;3.90;99.90;;;;;;5100713;28;20040;-82
2022/01/19 04:29:50;;;;;;;84.43;37.25;;;3.90;99.90;;;;;;5099976;28;20075;-83
2022/01/19 04:32:20;;;;;;;84.40;37.28;;;3.90;99.90;;;;;;5096540;28;20123;-83
2022/01/19 04:34:48;;;;;;;82.60;37.10;;;3.80;99.90;;;;;;5082423;28;20104;-83
2022/01/19 05:01:47;;;;;;;78.88;36.15;;;3.50;99.90;;;;;;5094994;28;20086;-83
2022/01/19 05:07:35;;;;;;;78.40;36.08;;;3.60;99.90;;;;;;5096890;28;20040;-83
2022/01/19 05:15:06;;;;;;;83.93;36.13;;;3.60;99.90;;;;;;5094488;28;20040;-83
2022/01/19 05:17:32;;;;;;;78.45;36.30;;;3.70;99.90;;;;;;5096689;28;20042;-83
2022/01/19 05:19:58;;;;;;;71.93;37.80;;;3.70;99.90;;;;;;5096152;28;20043;-83
2022/01/19 05:22:24;;;;;;;80.43;37.83;;;3.60;99.90;;;;;;5096531;28;20110;-82
2022/01/19 05:24:50;;;;;;;79.18;38.47;;;3.70;99.90;;;;;;5095440;28;20040;-83
2022/01/19 05:27:17;;;;;;;81.47;39.08;;;3.70;99.90;;;;;;5079159;28;20119;-83
2022/01/19 05:29:43;;;;;;;75.65;37.17;;;3.70;99.90;;;;;;5093929;28;20036;-84
2022/01/19 05:32:08;;;;;;;76.70;34.53;;;3.70;99.90;;;;;;5093610;28;20406;-83
2022/01/19 05:34:34;;;;;;;85.68;39.55;;;3.70;99.90;;;;;;5095120;28;20028;-84
2022/01/19 05:36:59;;;;;;;73.22;35.95;;;3.70;99.90;;;;;;5078009;28;20097;-83
2022/01/19 05:39:25;;;;;;;72.32;35.10;;;3.70;99.90;;;;;;5095042;28;20042;-82
2022/01/19 05:41:52;;;;;;;77.78;38.35;;;3.70;99.90;;;;;;5095062;28;20122;-83
2022/01/19 05:44:18;;;;;;;77.63;38.05;;;3.70;99.90;;;;;;5095832;28;20048;-83
2022/01/19 05:46:43;;;;;;;77.80;37.53;;;3.80;99.90;;;;;;5095540;28;20086;-82
2022/01/19 05:49:09;;;;;;;76.88;35.10;;;3.80;99.90;;;;;;5096346;28;20032;-83
2022/01/19 05:51:35;;;;;;;70.75;34.30;;;3.80;99.90;;;;;;5096124;28;20032;-83
2022/01/19 05:54:00;;;;;;;75.03;34.20;;;3.90;99.90;;;;;;5095997;28;20479;-83
2022/01/19 05:56:26;;;;;;;71.80;35.28;;;3.90;99.90;;;;;;5077477;28;20066;-83
2022/01/19 05:58:52;;;;;;;63.70;32.80;;;3.90;99.90;;;;;;5095074;28;20044;-83
2022/01/19 06:01:17;;;;;;;68.57;34.75;;;3.90;99.90;;;;;;5094735;28;20077;-83
2022/01/19 06:03:43;;;;;;;78.53;34.97;;;3.90;99.90;;;;;;5096198;28;20082;-83
2022/01/19 06:06:09;;;;;;;76.22;35.85;;;4.00;99.90;;;;;;5094418;28;20132;-82
2022/01/19 06:08:43;;;;;;;68.93;33.25;;;3.90;99.90;;;;;;5093519;28;20466;-82
2022/01/19 06:11:09;;;;;;;81.63;36.67;;;3.90;99.90;;;;;;5094828;28;20040;-82
2022/01/19 06:13:35;;;;;;;67.75;33.40;;;3.90;99.90;;;;;;5095185;28;20388;-82
2022/01/19 06:16:01;;;;;;;75.25;34.58;;;3.90;99.90;;;;;;5095964;28;20047;-83
2022/01/19 06:18:27;;;;;;;71.20;36.22;;;3.90;99.90;;;;;;5095671;28;20297;-83
2022/01/19 06:20:52;;;;;;;67.13;37.50;;;3.90;99.90;;;;;;5097186;28;20112;-83
2022/01/19 06:23:18;;;;;;;68.85;33.63;;;3.90;99.90;;;;;;5095283;28;20086;-83
2022/01/19 06:25:44;;;;;;;66.82;34.90;;;4.00;99.90;;;;;;5095961;28;20044;-83
2022/01/19 06:28:10;;;;;;;64.55;33.13;;;4.00;99.90;;;;;;5095319;28;20032;-82
2022/01/19 06:30:36;;;;;;;69.88;34.50;;;4.00;99.90;;;;;;5096889;28;20075;-83
2022/01/19 06:33:02;;;;;;;66.90;35.63;;;4.00;99.90;;;;;;5079375;28;20046;-82
2022/01/19 06:35:28;;;;;;;67.50;33.25;;;4.00;99.90;;;;;;5079334;28;20078;-82
2022/01/19 06:37:54;;;;;;;59.80;34.42;;;4.00;99.90;;;;;;5095946;28;20036;-82
2022/01/19 06:40:25;;;;;;;67.95;33.63;;;4.00;99.90;;;;;;5096516;28;20118;-83
2022/01/19 06:42:52;;;;;;;56.90;30.98;;;4.00;99.90;;;;;;5079131;28;20039;-83
2022/01/19 06:45:18;;;;;;;65.25;34.50;;;4.00;99.90;;;;;;5079099;28;20040;-82
2022/01/19 06:47:44;;;;;;;58.72;31.85;;;4.00;99.90;;;;;;5095299;28;20055;-83
2022/01/19 06:50:12;;;;;;;56.60;31.85;;;3.90;99.90;;;;;;5095553;28;20078;-82
2022/01/19 06:52:39;;;;;;;63.08;31.73;;;3.90;99.90;;;;;;5078961;28;20036;-83
2022/01/19 06:55:08;;;;;;;62.13;33.08;;;3.90;99.90;;;;;;5096171;28;20270;-83
2022/01/19 06:57:34;;;;;;;64.28;32.80;;;3.80;99.90;;;;;;5096065;28;20044;-82
2022/01/19 06:59:59;;;;;;;60.00;32.13;;;3.80;99.90;;;;;;5095791;28;20047;-83
2022/01/19 07:02:25;;;;;;;64.25;32.10;;;3.80;99.90;;;;;;5079518;28;20057;-82
2022/01/19 07:04:51;;;;;;;54.90;30.63;;;3.80;99.90;;;;;;5096073;28;20437;-81
2022/01/19 07:07:19;;;;;;;63.97;30.48;;;3.70;99.90;;;;;;5097527;28;20043;-83
2022/01/19 07:09:45;;;;;;;56.45;30.05;;;3.70;99.90;;;;;;5096548;28;20504;-83
2022/01/19 07:12:11;;;;;;;63.20;30.85;;;3.80;99.90;;;;;;5097284;28;20514;-82
2022/01/19 07:14:38;;;;;;;58.08;30.05;;;3.80;99.90;;;;;;5096101;28;20095;-82
2022/01/19 07:17:03;;;;;;;61.00;29.02;;;3.80;99.90;;;;;;5097971;28;20067;-81
2022/01/19 07:19:29;;;;;;;54.08;30.27;;;3.70;99.90;;;;;;5095671;28;20494;-81
2022/01/19 07:21:55;;;;;;;52.45;28.13;;;3.70;99.90;;;;;;5096739;28;20090;-81
2022/01/19 07:24:21;;;;;;;55.92;28.55;;;3.70;99.90;;;;;;5095967;28;20032;-81
2022/01/19 07:26:47;;;;;;;53.35;26.77;;;3.70;99.90;;;;;;5097294;28;20487;-81
2022/01/19 07:29:14;;;;;;;56.75;28.05;;;3.70;99.90;;;;;;5096714;28;20040;-81
2022/01/19 07:31:40;;;;;;;53.22;25.98;;;3.70;99.90;;;;;;5098282;28;20106;-82
2022/01/19 07:34:07;;;;;;;50.42;26.70;;;3.70;99.90;;;;;;5096626;28;20036;-81
2022/01/19 07:36:33;;;;;;;51.70;25.70;;;3.70;99.90;;;;;;5079951;28;20036;-82
2022/01/19 07:38:59;;;;;;;51.08;26.42;;;3.70;99.90;;;;;;5096831;28;20498;-81
2022/01/19 07:41:24;;;;;;;45.88;24.30;;;3.70;99.90;;;;;;5097710;28;20478;-82
2022/01/19 07:43:50;;;;;;;50.42;28.17;;;3.60;99.90;;;;;;5081160;28;20297;-82
2022/01/19 07:46:16;;;;;;;46.92;25.35;;;3.60;99.90;;;;;;5097715;28;20040;-82
2022/01/19 07:48:42;;;;;;;53.70;29.65;;;3.60;99.90;;;;;;5097942;28;20119;-81
2022/01/19 07:51:08;;;;;;;52.20;26.17;;;3.70;99.90;;;;;;5096866;28;20204;-82
2022/01/19 07:53:33;;;;;;;58.08;26.98;;;3.70;99.90;;;;;;5099007;28;20118;-80
2022/01/19 07:55:59;;;;;;;49.30;27.15;;;3.60;99.90;;;;;;5097669;28;20456;-82
2022/01/19 07:58:24;;;;;;;46.78;25.80;;;3.60;99.90;;;;;;5097838;28;20040;-81
2022/01/19 08:00:50;;;;;;;46.70;24.30;;;3.60;99.90;;;;;;5097408;28;20051;-81
2022/01/19 08:03:15;;;;;;;53.33;27.15;;;3.60;99.90;;;;;;5099432;28;20052;-80
2022/01/19 08:05:41;;;;;;;48.10;24.88;;;3.60;99.90;;;;;;5097807;28;20040;-81
2022/01/19 08:08:07;;;;;;;44.13;26.52;;;3.60;99.90;;;;;;5099681;28;20061;-82
2022/01/19 08:10:32;;;;;;;48.42;28.73;;;3.60;99.90;;;;;;5097679;28;20032;-81
2022/01/19 08:13:03;;;;;;;47.63;25.90;;;3.60;99.90;;;;;;5099849;28;20044;-79
2022/01/19 08:15:30;;;;;;;50.22;25.98;;;3.50;99.90;;;;;;5097697;28;20040;-81
2022/01/19 08:17:55;;;;;;;42.63;26.15;;;3.50;99.90;;;;;;5099395;28;20035;-81
2022/01/19 08:20:21;;;;;;;45.17;26.50;;;3.60;99.90;;;;;;5080978;28;20036;-81
2022/01/19 08:22:47;;;;;;;45.63;26.23;;;3.50;99.90;;;;;;5099492;28;20123;-81
2022/01/19 08:25:13;;;;;;;48.15;26.55;;;3.50;99.90;;;;;;5097149;28;20028;-81
2022/01/19 08:27:38;;;;;;;46.40;24.92;;;3.60;99.90;;;;;;5097456;28;20036;-81
2022/01/19 08:30:06;;;;;;;47.80;25.67;;;3.50;99.90;;;;;;5081812;28;20497;-81
2022/01/19 08:32:32;;;;;;;39.85;24.15;;;3.50;99.90;;;;;;5098717;28;20115;-82
2022/01/19 08:34:57;;;;;;;45.75;25.80;;;3.50;99.90;;;;;;5098837;28;20131;-81
2022/01/19 08:37:23;;;;;;;43.70;24.73;;;3.50;99.90;;;;;;5097362;28;20047;-80
2022/01/19 08:39:48;;;;;;;43.70;24.15;;;3.50;99.90;;;;;;5099691;28;20050;-80
2022/01/19 08:42:14;;;;;;;39.28;22.45;;;3.50;99.90;;;;;;5097972;28;20067;-80
2022/01/19 08:44:40;;;;;;;43.80;24.02;;;3.50;99.90;;;;;;5098893;28;20047;-81
2022/01/19 08:47:06;;;;;;;46.10;25.65;;;3.50;99.90;;;;;;5103136;28;20036;-79
2022/01/19 08:49:34;;;;;;;40.10;22.90;;;3.50;99.90;;;;;;5111561;28;20044;-79
2022/01/19 08:52:01;;;;;;;38.65;25.67;;;3.50;99.90;;;;;;5095500;28;20040;-79
2022/01/19 08:54:26;;;;;;;40.13;25.13;;;3.50;99.90;;;;;;5111683;28;20048;-80
2022/01/19 08:56:53;;;;;;;42.08;24.23;;;3.50;99.90;;;;;;5112837;28;20051;-79
2022/01/19 08:59:18;;;;;;;42.67;26.20;;;3.50;99.90;;;;;;5113651;28;20044;-81
2022/01/19 09:01:44;;;;;;;38.15;24.17;;;3.50;99.90;;;;;;5112308;28;20079;-80
2022/01/19 09:04:10;;;;;;;46.65;23.65;;;3.50;99.90;;;;;;5111599;28;20024;-81
2022/01/19 09:06:35;;;;;;;37.83;24.90;;;3.50;99.90;;;;;;5104769;28;20061;-80
2022/01/19 09:09:01;;;;;;;36.83;23.42;;;3.60;99.90;;;;;;5105595;28;20043;-81
2022/01/19 09:11:27;;;;;;;38.10;24.95;;;3.60;99.90;;;;;;5107357;28;20028;-82
2022/01/19 09:13:52;;;;;;;41.95;24.33;;;3.60;99.90;;;;;;5102665;28;20040;-81
2022/01/19 09:16:18;;;;;;;44.03;27.50;;;3.50;99.90;;;;;;5106984;28;20074;-81
2022/01/19 09:18:44;;;;;;;41.45;24.90;;;3.60;99.90;;;;;;5105243;28;20082;-81
2022/01/19 09:21:09;;;;;;;45.30;27.50;;;3.60;99.90;;;;;;5107069;28;20047;-81
2022/01/19 09:23:38;;;;;;;42.85;26.63;;;3.60;99.90;;;;;;5105552;28;20036;-81
2022/01/19 09:26:04;;;;;;;44.05;28.75;;;3.70;99.90;;;;;;5105737;28;20051;-80
2022/01/19 09:28:29;;;;;;;48.08;27.92;;;3.70;99.90;;;;;;5105473;28;20036;-80
2022/01/19 09:30:59;;;;;;;47.40;27.67;;;3.70;99.90;;;;;;5105133;28;20040;-81
2022/01/19 09:33:28;;;;;;;45.55;29.95;;;3.80;99.90;;;;;;5104416;28;20549;-81
2022/01/19 09:36:07;;;;;;;51.75;29.88;;;3.80;99.90;;;;;;5104592;28;20040;-81
2022/01/19 09:38:38;;;;;;;58.35;30.65;;;3.80;99.90;;;;;;5103748;28;20043;-81
2022/01/19 09:41:07;;;;;;;52.97;31.13;;;3.80;99.90;;;;;;5069765;28;20481;-80
2022/01/19 09:43:35;;;;;;;49.70;30.13;;;3.80;99.90;;;;;;5103161;28;20040;-81
2022/01/19 09:46:01;;;;;;;48.25;30.60;;;3.90;99.90;;;;;;5103709;28;20048;-80
2022/01/19 09:48:27;;;;;;;51.60;31.05;;;3.90;99.90;;;;;;5103117;28;20040;-80
2022/01/19 09:50:56;;;;;;;54.78;30.60;;;3.90;99.90;;;;;;5103621;28;20482;-81
2022/01/19 09:53:22;;;;;;;48.28;29.33;;;4.20;99.90;;;;;;5102981;28;20040;-81
2022/01/19 09:55:48;;;;;;;49.35;32.08;;;3.90;99.90;;;;;;5102721;28;20095;-81
2022/01/19 09:58:17;;;;;;;51.38;29.27;;;4.00;99.90;;;;;;5103043;28;20123;-81
2022/01/19 10:00:43;;;;;;;54.03;31.35;;;4.00;99.90;;;;;;5102494;28;20492;-80
2022/01/19 10:03:22;;;;;;;55.22;31.77;;;4.10;99.90;;;;;;5103254;28;20040;-80
2022/01/19 10:06:02;;;;;;;53.15;31.08;;;4.10;99.90;;;;;;5082791;28;20411;-80
2022/01/19 10:08:33;;;;;;;44.33;29.17;;;4.10;99.90;;;;;;5102034;28;20051;-81
2022/01/19 10:11:16;;;;;;;55.15;29.63;;;4.20;99.90;;;;;;5100700;28;20044;-80
2022/01/19 10:19:22;;;;;;;49.90;29.50;;;4.30;99.90;;;;;;5099958;28;20565;-80
2022/01/19 10:22:02;;;;;;;50.42;31.80;;;4.30;99.90;;;;;;5102124;28;20048;-80
2022/01/19 10:24:47;;;;;;;44.20;28.45;;;4.40;99.90;;;;;;5100828;28;20036;-81
2022/01/19 10:27:24;;;;;;;50.65;31.60;;;4.40;99.90;;;;;;5101685;28;20412;-80
2022/01/19 10:30:12;;;;;;;49.08;29.00;;;4.40;99.90;;;;;;5083701;28;20040;-80
2022/01/19 10:32:50;;;;;;;48.63;30.63;;;4.40;99.90;;;;;;5099401;28;20055;-80
2022/01/19 10:35:19;;;;;;;55.33;32.45;;;4.40;99.90;;;;;;5100539;28;20043;-81
2022/01/19 10:37:47;;;;;;;49.20;30.13;;;4.40;99.90;;;;;;5100074;28;20052;-80
2022/01/19 10:40:18;;;;;;;50.13;28.75;;;4.40;99.90;;;;;;5102370;28;20157;-80
2022/01/19 10:42:44;;;;;;;46.80;28.38;;;4.40;99.90;;;;;;5099591;28;20399;-81
2022/01/19 10:45:12;;;;;;;49.63;28.67;;;4.50;99.90;;;;;;5101853;28;20055;-80
2022/01/19 10:47:44;;;;;;;46.17;29.65;;;4.40;99.90;;;;;;5082658;28;20043;-81
2022/01/19 10:50:14;;;;;;;48.30;28.83;;;4.50;99.90;;;;;;5101701;28;20044;-81
2022/01/19 10:52:43;;;;;;;51.45;28.58;;;4.50;99.90;;;;;;5099076;28;20032;-82
2022/01/19 10:55:12;;;;;;;54.05;31.75;;;4.50;99.90;;;;;;5100662;28;20521;-81
2022/01/19 10:57:40;;;;;;;54.55;31.67;;;4.60;99.90;;;;;;5098293;28;20066;-81
2022/01/19 11:00:31;;;;;;;57.47;32.28;;;4.50;99.90;;;;;;5099733;28;20048;-82
2022/01/19 11:03:13;;;;;;;49.30;30.15;;;4.50;99.90;;;;;;5087512;28;20135;-82
2022/01/19 11:05:44;;;;;;;51.00;30.95;;;4.50;99.90;;;;;;5098772;28;20418;-82
2022/01/19 11:08:10;;;;;;;54.78;31.60;;;4.60;99.90;;;;;;5100416;28;20040;-81
2022/01/19 11:10:36;;;;;;;52.90;33.45;;;4.50;99.90;;;;;;5097748;28;20418;-82
2022/01/19 11:13:05;;;;;;;58.50;33.15;;;4.60;99.90;;;;;;5099739;28;20050;-81
2022/01/19 11:15:31;;;;;;;54.22;33.15;;;4.50;99.90;;;;;;5098670;28;20047;-82
2022/01/19 11:17:56;;;;;;;60.30;32.95;;;4.60;99.90;;;;;;5101080;28;20032;-81
2022/01/19 11:20:24;;;;;;;54.42;32.95;;;4.50;99.90;;;;;;5098085;28;20043;-79
2022/01/19 11:23:10;;;;;;;54.60;29.88;;;4.60;99.90;;;;;;5100191;28;20052;-80
2022/01/19 11:26:04;;;;;;;56.75;34.40;;;4.50;99.90;;;;;;5100526;28;20040;-79
2022/01/19 11:28:44;;;;;;;60.78;33.72;;;4.50;99.90;;;;;;5099913;28;20092;-80
2022/01/19 11:31:11;;;;;;;55.10;35.00;;;4.50;99.90;;;;;;5099667;28;20112;-79
2022/01/19 11:33:47;;;;;;;59.03;34.53;;;4.50;99.90;;;;;;5099715;28;20048;-81
2022/01/19 11:36:33;;;;;;;61.53;37.22;;;4.50;99.90;;;;;;5101088;28;20080;-81
2022/01/19 11:39:17;;;;;;;63.13;36.67;;;4.50;99.90;;;;;;5099413;28;20113;-80
2022/01/19 11:41:51;;;;;;;69.55;37.95;;;4.50;99.90;;;;;;5099920;28;20043;-80
2022/01/19 11:44:28;;;;;;;69.60;38.63;;;4.50;99.90;;;;;;5099664;28;20043;-81
2022/01/19 11:46:56;;;;;;;59.80;36.22;;;4.50;99.90;;;;;;5097439;28;20478;-82
2022/01/19 11:49:49;;;;;;;66.70;37.03;;;4.40;99.90;;;;;;5099639;28;20043;-81
2022/01/19 11:52:16;;;;;;;65.63;38.00;;;4.50;99.90;;;;;;5098613;28;20051;-81
2022/01/19 11:54:43;;;;;;;67.07;36.83;;;4.60;99.90;;;;;;5099046;28;20585;-79
2022/01/19 11:57:14;;;;;;;68.68;38.35;;;4.50;99.90;;;;;;5099026;28;20044;-81
2022/01/19 11:59:46;;;;;;;70.47;38.22;;;4.50;99.90;;;;;;5100297;28;20080;-81
2022/01/19 12:02:21;;;;;;;65.70;37.78;;;4.50;99.90;;;;;;5097234;28;20081;-81
2022/01/19 12:04:58;;;;;;;74.68;41.13;;;4.60;99.90;;;;;;5099256;28;20123;-81
2022/01/19 12:07:45;;;;;;;62.83;36.38;;;4.60;99.90;;;;;;5098230;28;20091;-81
2022/01/19 12:10:42;;;;;;;79.25;40.90;;;4.60;99.90;;;;;;5099381;28;20089;-79
2022/01/19 12:13:57;;;;;;;72.32;38.75;;;4.60;99.90;;;;;;5100208;28;20413;-81
2022/01/19 12:19:08;;;;;;;76.82;42.00;;;4.60;99.90;;;;;;5098859;28;20489;-81
2022/01/19 12:21:43;;;;;;;76.78;40.95;;;4.80;99.90;;;;;;5082113;28;20172;-81
2022/01/19 12:24:25;;;;;;;;;;;4.60;99.90;;;;;;5097579;28;20040;-81
2022/01/19 12:26:53;;;;;;;67.68;38.35;;;4.70;99.90;;;;;;5099556;28;20002;-81
2022/01/19 12:29:36;;;;;;;67.40;38.40;;;4.70;99.90;;;;;;5097505;28;20089;-81
2022/01/19 12:32:15;;;;;;;76.22;40.65;;;4.70;99.90;;;;;;5101081;28;20032;-81
2022/01/19 12:34:48;;;;;;;76.22;42.45;;;4.80;99.90;;;;;;5096967;28;20043;-81
2022/01/19 12:37:34;;;;;;;68.93;40.90;;;4.80;99.90;;;;;;5098832;28;20491;-81
2022/01/19 12:40:18;;;;;;;65.85;36.35;;;5.00;99.90;;;;;;5100732;28;20479;-81
2022/01/19 12:42:55;;;;;;;79.43;41.80;;;4.90;99.90;;;;;;5100216;28;20040;-81
2022/01/19 12:45:45;;;;;;;75.32;40.08;;;4.80;99.90;;;;;;5105233;28;20119;-81
2022/01/19 12:48:12;;;;;;;76.72;42.22;;;4.80;99.90;;;;;;5102960;28;20040;-80
2022/01/19 12:50:40;;;;;;;79.18;41.30;;;4.80;99.90;;;;;;5103624;28;20040;-82
2022/01/19 12:53:19;;;;;;;90.00;41.92;;;4.80;99.90;;;;;;5101332;28;20114;-82
2022/01/19 12:56:00;;;;;;;83.15;43.55;;;4.80;99.90;;;;;;5101890;28;20055;-82
2022/01/19 12:58:33;;;;;;;84.78;43.40;;;4.80;99.90;;;;;;5102390;28;20068;-82
2022/01/19 13:01:01;;;;;;;82.85;46.08;;;4.70;99.90;;;;;;5101302;28;20111;-83
2022/01/19 13:03:30;;;;;;;84.95;45.22;;;4.60;99.90;;;;;;5103154;28;20051;-82
2022/01/19 13:06:05;;;;;;;86.55;42.65;;;4.70;99.90;;;;;;5100487;28;20079;-82
2022/01/19 13:09:00;;;;;;;87.53;45.27;;;4.80;99.90;;;;;;5107067;28;20038;-82
2022/01/19 13:11:39;;;;;;;86.22;47.53;;;4.80;99.90;;;;;;5080382;28;20274;-82
2022/01/19 13:14:10;;;;;;;84.68;45.28;;;4.80;99.90;;;;;;5067201;28;20036;-83
2022/01/19 13:16:42;;;;;;;87.40;46.25;;;4.90;99.90;;;;;;5084995;28;20525;-81
2022/01/19 13:19:19;;;;;;;83.25;44.70;;;4.80;99.90;;;;;;5095934;28;20051;-82
2022/01/19 13:21:58;;;;;;;75.20;42.90;;;4.80;99.90;;;;;;5101310;28;20047;-82
2022/01/19 13:24:29;;;;;;;74.82;41.05;;;4.80;99.90;;;;;;5103168;28;20040;-81
2022/01/19 13:26:59;;;;;;;75.93;39.70;;;4.80;99.90;;;;;;5102415;28;20043;-82
2022/01/19 13:29:31;;;;;;;84.68;44.38;;;4.90;99.90;;;;;;5100415;28;20068;-80
2022/01/19 13:32:15;;;;;;;75.68;41.80;;;4.90;99.90;;;;;;5086832;28;20483;-81
2022/01/19 13:35:01;;;;;;;93.75;48.10;;;5.00;99.90;;;;;;5101762;28;20089;-80
2022/01/19 13:37:42;;;;;;;91.53;49.63;;;4.90;99.90;;;;;;5102445;28;20047;-80
2022/01/19 13:40:16;;;;;;;80.50;41.15;;;4.90;99.90;;;;;;5103464;28;20051;-80
2022/01/19 13:42:45;;;;;;;83.20;42.20;;;5.00;99.90;;;;;;5100882;28;20055;-80
2022/01/19 13:45:20;;;;;;;72.55;39.20;;;5.00;99.90;;;;;;5102123;28;20318;-80
2022/01/19 13:48:19;;;;;;;73.00;40.20;;;5.00;99.90;;;;;;5100169;28;20089;-80
2022/01/19 13:50:50;;;;;;;71.20;37.28;;;5.00;99.90;;;;;;5102494;28;20040;-80
2022/01/19 13:53:28;;;;;;;70.03;37.47;;;5.00;99.90;;;;;;5101046;28;20048;-81
2022/01/19 13:55:55;;;;;;;67.72;38.22;;;5.10;99.90;;;;;;5100336;28;20123;-81
2022/01/19 13:58:21;;;;;;;67.80;35.30;;;5.10;99.90;;;;;;5099794;28;20097;-81
2022/01/19 14:00:50;;;;;;;65.10;36.28;;;5.20;99.90;;;;;;5101769;28;20036;-80
2022/01/19 14:03:17;;;;;;;64.40;35.42;;;5.20;99.90;;;;;;5101336;28;20493;-80
2022/01/19 14:05:48;;;;;;;71.32;36.40;;;5.10;99.90;;;;;;5083298;28;20048;-80
2022/01/19 14:08:14;;;;;;;64.22;36.97;;;5.20;99.90;;;;;;5101759;28;20047;-80
2022/01/19 14:10:44;;;;;;;65.63;35.70;;;5.20;99.90;;;;;;5100414;28;20036;-80
2022/01/19 14:13:35;;;;;;;62.30;36.17;;;5.20;99.90;;;;;;5101160;28;20043;-79
2022/01/19 14:16:22;;;;;;;60.28;32.47;;;5.20;99.90;;;;;;5099810;28;20491;-81